Time;durP1;ratioP1;P1;durP2;ratioP2;P2;SDS_P1;SDS_P2;PMS_P1;PMS_P2;Temp;Humidity;BMP_temperature;BMP_pressure;BME280_temperature;BME280_humidity;BME280_pressure;Samples;Min_cycle;Max_cycle;Signal;HPM_P1;HPM_P2
2022/07/08 00:01:54;;;;;;;5.35;2.58;;;16.40;64.80;;;16.49;54.92;98681.63;5027835;28;20263;-39
2022/07/08 00:04:23;;;;;;;5.38;2.72;;;16.40;64.70;;;16.58;54.62;98690.50;5027892;28;20049;-39
2022/07/08 00:06:51;;;;;;;5.35;2.38;;;16.50;64.70;;;16.56;54.50;98686.31;5027626;28;20041;-40
2022/07/08 00:09:19;;;;;;;12.05;3.55;;;16.40;63.90;;;16.45;54.02;98684.84;5027306;28;20041;-39
2022/07/08 00:11:47;;;;;;;3.60;2.40;;;16.30;63.10;;;16.42;53.35;98687.84;5027810;28;20077;-39
2022/07/08 00:14:15;;;;;;;5.60;2.95;;;16.30;62.30;;;16.41;53.38;98696.94;5026673;28;20049;-39
2022/07/08 00:16:43;;;;;;;7.13;3.10;;;16.20;62.30;;;16.33;53.01;98693.25;5025960;28;20049;-39
2022/07/08 00:19:14;;;;;;;8.05;3.90;;;16.20;62.00;;;16.24;52.77;98693.47;5026297;28;20051;-39
2022/07/08 00:21:44;;;;;;;6.93;2.70;;;16.10;61.40;;;16.22;52.36;98698.16;5027060;28;20254;-39
2022/07/08 00:24:14;;;;;;;10.02;4.15;;;16.00;60.70;;;16.17;52.79;98697.84;5042820;28;20053;-39
2022/07/08 00:26:43;;;;;;;6.68;3.60;;;16.00;61.50;;;16.02;53.00;98695.84;5043142;28;20072;-40
2022/07/08 00:29:12;;;;;;;8.18;4.32;;;15.90;62.00;;;16.00;52.80;98689.81;5026993;28;20063;-39
2022/07/08 00:31:40;;;;;;;7.57;3.15;;;15.80;61.60;;;16.06;52.50;98694.50;5027587;28;20048;-39
2022/07/08 00:34:08;;;;;;;5.70;3.30;;;15.90;61.10;;;16.01;52.70;98694.16;5028467;28;20053;-39
2022/07/08 00:36:36;;;;;;;6.95;3.42;;;15.80;61.40;;;15.94;52.45;98695.88;5026541;28;20071;-39
2022/07/08 00:39:04;;;;;;;5.05;3.30;;;15.80;60.80;;;16.03;52.43;98702.91;5027267;28;20247;-39
2022/07/08 00:41:32;;;;;;;7.30;3.15;;;15.80;61.10;;;15.78;51.94;98704.78;5026330;28;20347;-39
2022/07/08 00:44:00;;;;;;;4.10;3.03;;;15.60;60.00;;;15.79;52.19;98706.44;5026756;28;20043;-39
2022/07/08 00:46:28;;;;;;;4.28;2.83;;;15.60;60.40;;;15.68;52.25;98714.81;5025975;28;20296;-39
2022/07/08 00:48:56;;;;;;;3.88;2.75;;;15.50;60.30;;;15.67;52.67;98713.97;5027015;28;20052;-39
2022/07/08 00:51:24;;;;;;;12.75;4.85;;;15.50;61.20;;;15.63;52.56;98712.63;5027027;28;20055;-40
2022/07/08 00:53:53;;;;;;;4.43;2.90;;;15.50;61.40;;;15.55;52.25;98726.06;5042107;28;20055;-39
2022/07/08 00:56:22;;;;;;;5.18;3.05;;;15.40;60.30;;;15.55;52.65;98720.69;5042153;28;20240;-40
2022/07/08 00:58:51;;;;;;;7.00;3.30;;;15.30;61.00;;;15.53;52.40;98720.03;5042183;28;20049;-39
2022/07/08 01:01:20;;;;;;;4.53;2.67;;;15.30;61.20;;;15.50;52.62;98713.13;5027254;28;20057;-39
2022/07/08 01:03:49;;;;;;;6.63;3.53;;;15.30;61.30;;;15.53;52.44;98720.84;5026539;28;20232;-39
2022/07/08 01:06:17;;;;;;;7.97;2.80;;;15.30;60.80;;;15.42;52.53;98709.59;5027992;28;20053;-39
2022/07/08 01:08:45;;;;;;;7.03;2.92;;;15.20;61.20;;;15.23;52.81;98716.13;5026656;28;20048;-39
2022/07/08 01:11:13;;;;;;;9.10;3.45;;;15.10;61.70;;;15.27;52.87;98722.81;5026606;28;20071;-39
2022/07/08 01:13:42;;;;;;;7.13;3.20;;;15.10;61.60;;;15.29;52.95;98718.97;5027297;28;20329;-39
2022/07/08 01:16:10;;;;;;;4.68;2.88;;;15.00;61.80;;;15.28;52.92;98719.97;5041964;28;20276;-39
2022/07/08 01:18:41;;;;;;;8.35;3.65;;;15.00;61.90;;;15.30;52.95;98715.28;5041538;28;20268;-39
2022/07/08 01:21:09;;;;;;;5.15;2.97;;;15.00;62.20;;;15.30;52.92;98711.78;5026953;28;20259;-39
2022/07/08 01:23:37;;;;;;;3.85;2.50;;;15.00;62.20;;;15.20;53.64;98716.44;5026872;28;20041;-39
2022/07/08 01:26:10;;;;;;;8.07;2.97;;;15.00;63.80;;;15.12;53.98;98720.78;5026304;28;20063;-39
2022/07/08 01:28:42;;;;;;;6.97;3.38;;;15.00;63.40;;;15.22;53.72;98717.09;5024975;28;20055;-39
2022/07/08 01:31:11;;;;;;;7.63;3.60;;;15.00;63.60;;;15.02;54.34;98712.03;5026818;28;20041;-39
2022/07/08 01:33:39;;;;;;;6.30;3.30;;;14.80;64.20;;;14.97;54.68;98717.06;5030180;28;20067;-39
2022/07/08 01:36:07;;;;;;;6.75;3.22;;;14.70;65.10;;;14.80;55.11;98724.19;5030176;28;20288;-39
2022/07/08 01:38:36;;;;;;;7.32;3.17;;;14.60;65.40;;;14.82;55.26;98722.19;5029578;28;20057;-39
2022/07/08 01:41:04;;;;;;;3.60;2.85;;;14.60;65.70;;;14.90;55.01;98722.22;5030245;28;20052;-39
2022/07/08 01:43:32;;;;;;;8.10;3.30;;;14.60;65.50;;;14.75;55.40;98729.19;5030379;28;20033;-39
2022/07/08 01:46:00;;;;;;;6.95;3.10;;;14.50;66.10;;;14.58;55.94;98733.66;5030622;28;20041;-39
2022/07/08 01:48:28;;;;;;;5.60;3.10;;;14.40;66.90;;;14.73;55.57;98733.88;5030524;28;20127;-39
2022/07/08 01:50:56;;;;;;;6.57;3.08;;;14.50;66.30;;;14.74;55.84;98743.63;5030399;28;20071;-39
2022/07/08 01:53:25;;;;;;;8.98;2.83;;;14.60;66.40;;;14.60;56.14;98745.06;5031109;28;20057;-39
2022/07/08 01:55:53;;;;;;;8.98;3.50;;;14.40;67.00;;;14.69;55.94;98752.13;5031147;28;20062;-39
2022/07/08 01:58:21;;;;;;;4.22;3.00;;;14.50;66.80;;;14.66;56.09;98754.31;5030910;28;20061;-39
2022/07/08 02:00:49;;;;;;;5.60;2.85;;;14.50;66.70;;;14.76;55.77;98755.84;5030222;28;20061;-39
2022/07/08 02:03:17;;;;;;;6.82;2.97;;;14.60;66.40;;;14.70;55.94;98753.81;5029833;28;20072;-39
2022/07/08 02:05:46;;;;;;;5.63;3.05;;;14.60;66.20;;;14.73;55.92;98764.22;5029828;28;20061;-40
2022/07/08 02:08:14;;;;;;;5.40;2.72;;;14.60;66.00;;;14.64;56.02;98759.00;5030201;28;20056;-39
2022/07/08 02:13:30;;;;;;;8.35;2.92;;;14.60;66.20;;;14.74;55.84;98754.34;5057846;28;20059;-40
2022/07/08 02:15:58;;;;;;;6.40;3.22;;;14.60;65.90;;;14.75;55.80;98759.56;5031318;28;20056;-40
2022/07/08 02:18:26;;;;;;;4.97;2.70;;;14.70;65.70;;;14.63;56.04;98760.81;5030553;28;20053;-39
2022/07/08 02:20:54;;;;;;;4.78;2.58;;;14.60;66.00;;;14.69;55.76;98756.66;5030060;28;20064;-40
2022/07/08 02:23:22;;;;;;;6.30;2.65;;;14.60;65.90;;;14.51;56.25;98757.53;5029701;28;20585;-40
2022/07/08 02:25:50;;;;;;;11.02;3.55;;;14.40;66.10;;;14.52;56.04;98755.69;5030284;28;20049;-40
2022/07/08 02:28:18;;;;;;;9.07;5.13;;;14.40;66.50;;;14.69;55.58;98762.84;5044709;28;20045;-40
2022/07/08 02:30:46;;;;;;;9.82;3.55;;;14.50;66.10;;;14.59;55.90;98755.94;5029776;28;20060;-40
2022/07/08 02:33:14;;;;;;;5.00;2.50;;;14.40;66.30;;;14.64;55.61;98759.81;5030100;28;20053;-40
2022/07/08 02:35:42;;;;;;;4.97;2.88;;;14.40;66.40;;;14.64;55.45;98767.03;5045305;28;20056;-40
2022/07/08 02:38:10;;;;;;;6.95;3.05;;;14.40;67.10;;;14.62;55.79;98767.19;5028831;28;20255;-40
2022/07/08 02:40:38;;;;;;;4.55;2.80;;;14.40;66.20;;;14.65;55.56;98772.22;5029669;28;20053;-39
2022/07/08 02:43:09;;;;;;;6.90;3.30;;;14.40;66.20;;;14.51;56.23;98776.28;5029134;28;20065;-40
2022/07/08 02:45:38;;;;;;;4.93;3.05;;;14.30;66.70;;;14.52;55.73;98772.63;5029596;28;20068;-40
2022/07/08 02:48:06;;;;;;;4.78;2.50;;;14.30;66.80;;;14.26;56.52;98779.81;5028817;28;20049;-40
2022/07/08 02:50:34;;;;;;;7.25;2.70;;;14.10;67.60;;;14.00;57.38;98772.63;5028335;28;20041;-40
2022/07/08 02:53:02;;;;;;;6.93;2.75;;;13.90;68.40;;;14.07;57.08;98776.31;5028493;28;20045;-39
2022/07/08 02:55:30;;;;;;;7.65;3.03;;;13.90;68.40;;;14.20;56.62;98786.63;5029805;28;20370;-40
2022/07/08 02:57:58;;;;;;;6.85;3.08;;;14.00;67.90;;;14.23;56.72;98788.16;5029059;28;20045;-39
2022/07/08 03:00:25;;;;;;;8.13;3.53;;;14.00;67.70;;;14.22;56.64;98783.81;5029251;28;20256;-40
2022/07/08 03:02:53;;;;;;;6.82;2.85;;;14.00;67.80;;;14.28;56.48;98783.19;5028787;28;20057;-40
2022/07/08 03:05:21;;;;;;;5.53;3.10;;;14.00;67.70;;;14.37;56.03;98779.56;5029305;28;20259;-39
2022/07/08 03:07:49;;;;;;;5.78;2.88;;;14.10;67.30;;;14.43;55.76;98786.13;5028291;28;20054;-40
2022/07/08 03:10:17;;;;;;;4.60;3.10;;;14.10;67.00;;;14.37;55.88;98796.47;5029639;28;20343;-40
2022/07/08 03:12:45;;;;;;;6.93;2.90;;;14.10;67.30;;;14.33;56.05;98794.28;5028169;28;20041;-40
2022/07/08 03:15:12;;;;;;;6.40;3.17;;;14.00;67.50;;;14.37;55.78;98796.47;5029597;28;20071;-40
2022/07/08 03:17:40;;;;;;;6.78;2.95;;;14.00;67.30;;;14.37;55.71;98796.47;5028171;28;20045;-39
2022/07/08 03:20:09;;;;;;;6.97;3.00;;;14.00;67.30;;;14.36;55.71;98796.63;5028714;28;20059;-39
2022/07/08 03:22:36;;;;;;;9.27;3.20;;;14.00;67.30;;;14.32;56.00;98804.13;5027772;28;20058;-39
2022/07/08 03:25:05;;;;;;;4.28;2.67;;;13.90;67.70;;;14.26;55.97;98802.09;5028819;28;20045;-40
2022/07/08 03:27:33;;;;;;;12.43;3.45;;;13.80;68.10;;;14.29;55.86;98800.94;5042922;28;20052;-39
2022/07/08 03:30:01;;;;;;;8.25;3.92;;;13.90;67.90;;;14.31;55.90;98807.00;5027582;28;20056;-39
2022/07/08 03:32:29;;;;;;;6.80;4.30;;;13.90;68.00;;;14.28;55.83;98808.13;5028905;28;20239;-40
2022/07/08 03:34:57;;;;;;;6.22;3.05;;;13.80;67.80;;;14.24;55.90;98814.78;5029580;28;20053;-40
2022/07/08 03:37:25;;;;;;;7.35;3.10;;;13.80;68.10;;;14.19;56.00;98814.44;5026545;28;20355;-40
2022/07/08 03:39:53;;;;;;;5.38;3.20;;;13.70;68.50;;;14.15;56.05;98819.25;5043172;28;20061;-40
2022/07/08 03:42:21;;;;;;;5.15;3.40;;;13.70;68.60;;;14.14;56.25;98827.44;5028138;28;20449;-40
2022/07/08 03:44:49;;;;;;;10.52;3.60;;;13.70;68.80;;;14.17;56.10;98832.47;5028327;28;20059;-39
2022/07/08 03:47:16;;;;;;;9.43;3.72;;;13.70;68.40;;;14.09;56.50;98833.25;5027530;28;20050;-40
2022/07/08 03:49:44;;;;;;;7.70;3.35;;;13.70;68.80;;;14.15;55.99;98832.66;5027680;28;20061;-40
2022/07/08 03:52:12;;;;;;;6.68;3.97;;;13.70;68.40;;;14.11;56.29;98828.59;5027970;28;20045;-40
2022/07/08 03:54:40;;;;;;;7.13;3.78;;;13.70;68.60;;;14.09;56.25;98829.72;5027678;28;20065;-40
2022/07/08 03:57:07;;;;;;;5.60;3.40;;;13.60;68.70;;;14.07;56.18;98839.75;5027258;28;20382;-40
2022/07/08 03:59:35;;;;;;;5.30;3.58;;;13.60;68.90;;;14.01;56.33;98841.22;5027453;28;20057;-40
2022/07/08 04:02:03;;;;;;;12.88;4.10;;;13.50;69.30;;;14.02;56.29;98842.06;5028398;28;20255;-40
2022/07/08 04:04:31;;;;;;;5.03;3.35;;;13.60;68.80;;;14.07;56.11;98842.44;5028032;28;20060;-39
2022/07/08 04:06:59;;;;;;;9.57;3.85;;;13.70;68.60;;;14.03;56.27;98841.06;5027068;28;20108;-40
2022/07/08 04:09:27;;;;;;;4.85;3.08;;;13.60;68.80;;;13.91;56.59;98856.53;5027653;28;20239;-39
2022/07/08 04:11:55;;;;;;;7.22;3.42;;;13.50;69.50;;;13.87;56.83;98845.28;5027408;28;20262;-39
2022/07/08 04:14:23;;;;;;;6.60;3.75;;;13.40;69.80;;;13.92;56.70;98844.81;5026423;28;20455;-40
2022/07/08 04:16:50;;;;;;;5.97;3.55;;;13.50;69.40;;;13.91;56.74;98849.31;5026668;28;20049;-40
2022/07/08 04:19:18;;;;;;;6.63;3.92;;;13.50;69.60;;;13.88;56.86;98846.09;5027524;28;20057;-40
2022/07/08 04:21:46;;;;;;;8.82;3.20;;;13.40;69.60;;;13.90;56.90;98842.31;5028081;28;20061;-40
2022/07/08 04:24:14;;;;;;;10.13;3.15;;;13.50;69.60;;;13.90;56.82;98842.31;5026544;28;20038;-40
2022/07/08 04:26:42;;;;;;;7.32;4.10;;;13.50;69.30;;;13.93;56.86;98846.50;5026780;28;20368;-40
2022/07/08 04:29:10;;;;;;;5.70;3.83;;;13.50;69.30;;;13.97;56.65;98845.19;5027771;28;20348;-40
2022/07/08 04:31:37;;;;;;;8.15;3.72;;;13.60;69.00;;;13.97;56.68;98838.00;5027217;28;20053;-40
2022/07/08 04:34:05;;;;;;;6.80;4.10;;;13.60;69.10;;;13.99;56.48;98844.03;5027510;28;20060;-40
2022/07/08 04:36:33;;;;;;;5.78;3.20;;;13.60;69.00;;;14.02;56.53;98848.25;5026604;28;20067;-40
2022/07/08 04:39:01;;;;;;;6.55;3.40;;;13.70;68.90;;;14.06;56.38;98838.94;5027907;28;20356;-40
2022/07/08 04:41:29;;;;;;;5.72;4.53;;;13.70;68.90;;;14.08;56.58;98841.44;5026366;28;20046;-40
2022/07/08 04:43:57;;;;;;;8.00;3.30;;;13.70;68.60;;;14.03;56.83;98843.75;5027102;28;20165;-41
2022/07/08 04:46:24;;;;;;;6.40;3.47;;;13.70;69.00;;;13.98;56.60;98845.03;5026472;28;20348;-40
2022/07/08 04:48:52;;;;;;;4.85;3.20;;;13.60;69.10;;;13.97;56.85;98838.00;5026304;28;20053;-40
2022/07/08 04:51:20;;;;;;;5.85;3.60;;;13.60;69.10;;;13.90;57.12;98839.63;5027546;28;20051;-40
2022/07/08 04:53:56;;;;;;;7.15;3.10;;;13.60;69.50;;;13.99;56.82;98849.41;5027504;28;20344;-40
2022/07/08 04:56:24;;;;;;;8.75;3.70;;;13.70;69.20;;;13.96;57.18;98852.41;5027231;28;20366;-40
2022/07/08 04:58:52;;;;;;;9.82;3.40;;;13.70;69.30;;;13.96;57.36;98859.59;5027074;28;20045;-40
2022/07/08 05:01:20;;;;;;;8.15;3.65;;;13.70;69.50;;;14.02;57.31;98855.47;5026245;28;20053;-40
2022/07/08 05:03:48;;;;;;;7.88;2.88;;;13.80;69.30;;;14.03;57.23;98852.59;5026840;28;20053;-40
2022/07/08 05:06:15;;;;;;;7.38;3.78;;;13.80;69.20;;;14.06;57.28;98863.03;5025861;28;20068;-40
2022/07/08 05:08:43;;;;;;;6.45;3.20;;;13.80;69.20;;;14.05;57.37;98855.97;5027242;28;20049;-40
2022/07/08 05:11:12;;;;;;;8.30;2.72;;;13.80;69.10;;;14.06;57.14;98857.66;5025602;28;20366;-40
2022/07/08 05:13:40;;;;;;;8.00;3.30;;;13.80;68.60;;;14.03;57.33;98857.97;5025535;28;20053;-40
2022/07/08 05:16:08;;;;;;;4.70;3.03;;;13.80;68.90;;;14.08;57.19;98854.84;5025866;28;20233;-40
2022/07/08 05:18:36;;;;;;;7.20;3.10;;;13.90;69.00;;;14.11;57.33;98855.38;5026040;28;20143;-40
2022/07/08 05:21:04;;;;;;;6.93;2.70;;;13.90;69.00;;;14.08;57.72;98855.69;5026367;28;20045;-40
2022/07/08 05:23:32;;;;;;;5.72;2.95;;;13.90;69.40;;;14.02;57.73;98858.97;5026683;28;20068;-40
2022/07/08 05:26:00;;;;;;;9.48;2.88;;;13.80;69.30;;;13.95;57.99;98860.56;5026474;28;20054;-40
2022/07/08 05:28:27;;;;;;;6.68;3.30;;;13.80;69.50;;;14.04;57.67;98866.84;5026146;28;20069;-40
2022/07/08 05:30:56;;;;;;;7.22;3.17;;;13.90;69.30;;;14.04;57.88;98861.50;5025637;28;20126;-40
2022/07/08 05:33:24;;;;;;;6.90;2.97;;;13.90;69.30;;;14.02;57.82;98864.31;5026683;28;20056;-40
2022/07/08 05:35:51;;;;;;;4.82;2.80;;;13.90;69.10;;;14.16;57.77;98857.59;5026567;28;20083;-41
2022/07/08 05:38:19;;;;;;;8.73;3.10;;;14.00;69.00;;;14.22;57.48;98861.47;5025458;28;20335;-40
2022/07/08 05:40:47;;;;;;;5.30;3.38;;;14.10;68.80;;;14.29;57.24;98867.91;5025566;28;20055;-41
2022/07/08 05:43:15;;;;;;;6.90;2.67;;;14.10;68.00;;;14.28;56.72;98860.84;5026314;28;20056;-40
2022/07/08 05:45:43;;;;;;;5.45;2.70;;;14.10;66.60;;;14.23;56.37;98873.84;5027138;28;20059;-40
2022/07/08 05:48:11;;;;;;;6.40;2.55;;;14.10;66.60;;;14.29;56.62;98879.47;5026119;28;20054;-41
2022/07/08 05:50:38;;;;;;;5.63;2.90;;;14.10;65.90;;;14.35;56.09;98876.16;5026154;28;20049;-41
2022/07/08 05:53:06;;;;;;;4.28;3.00;;;14.20;66.20;;;14.32;56.28;98878.31;5025563;28;20064;-41
2022/07/08 05:55:34;;;;;;;10.95;3.47;;;14.20;66.40;;;14.40;56.13;98877.53;5042161;28;20056;-40
2022/07/08 05:58:02;;;;;;;11.77;4.68;;;14.30;66.70;;;14.47;55.88;98886.63;5027059;28;20057;-40
2022/07/08 06:00:30;;;;;;;4.72;2.83;;;14.40;66.00;;;14.57;56.01;98890.06;5025296;28;20053;-40
2022/07/08 06:02:57;;;;;;;7.22;2.97;;;14.50;65.80;;;14.66;55.67;98886.47;5040012;28;20057;-41
2022/07/08 06:05:25;;;;;;;8.45;2.33;;;14.50;65.00;;;14.63;55.54;98880.56;5027586;28;20052;-40
2022/07/08 06:07:53;;;;;;;4.80;2.63;;;14.50;65.20;;;14.64;55.51;98890.31;5026193;28;20595;-40
2022/07/08 06:10:21;;;;;;;8.82;3.05;;;14.50;65.20;;;14.66;55.58;98886.47;5026519;28;20041;-41
2022/07/08 06:12:50;;;;;;;4.07;2.08;;;14.60;65.20;;;14.71;55.25;98886.84;5041419;28;20045;-41
2022/07/08 06:15:18;;;;;;;6.03;2.30;;;14.60;64.50;;;14.77;54.95;98883.53;5025368;28;20049;-40
2022/07/08 06:17:46;;;;;;;8.98;3.40;;;14.70;63.90;;;14.84;54.63;98894.44;5027021;28;20355;-41
2022/07/08 06:20:14;;;;;;;4.57;2.20;;;14.80;63.40;;;14.74;54.22;98891.03;5029614;28;20053;-40
2022/07/08 06:22:50;;;;;;;7.35;2.60;;;14.70;62.30;;;14.82;54.16;98892.94;5027693;28;20291;-40
2022/07/08 06:25:19;;;;;;;5.50;2.22;;;14.70;63.30;;;14.78;53.24;98897.78;5028061;28;20064;-40
2022/07/08 06:27:47;;;;;;;7.15;2.20;;;14.70;61.20;;;14.77;53.26;98896.94;5028429;28;20053;-41
2022/07/08 06:30:15;;;;;;;4.10;2.10;;;14.80;60.50;;;14.89;53.35;98902.88;5029906;28;20063;-41
2022/07/08 06:32:42;;;;;;;9.70;2.33;;;14.80;61.60;;;14.95;53.54;98898.72;5029377;28;20059;-41
2022/07/08 06:35:11;;;;;;;6.57;2.65;;;14.90;61.70;;;15.03;53.64;98914.84;5029072;28;20050;-39
2022/07/08 06:37:39;;;;;;;4.03;2.47;;;15.00;61.50;;;15.03;52.50;98908.66;5028956;28;20251;-39
2022/07/08 06:40:08;;;;;;;7.18;1.75;;;15.00;59.90;;;15.07;52.36;98910.00;5027027;28;20061;-40
2022/07/08 06:42:36;;;;;;;5.38;2.10;;;15.00;59.20;;;15.11;52.36;98903.31;5029459;28;20057;-40
2022/07/08 06:45:06;;;;;;;6.20;1.60;;;15.10;60.00;;;15.20;52.41;98904.19;5028754;28;20049;-40
2022/07/08 06:47:34;;;;;;;2.60;1.70;;;15.20;59.60;;;15.19;52.00;98913.25;5028111;28;20064;-40
2022/07/08 06:50:02;;;;;;;4.82;1.70;;;15.20;58.50;;;15.19;51.65;98907.91;5027566;28;20041;-40
2022/07/08 06:52:31;;;;;;;12.43;2.80;;;15.10;58.90;;;15.23;51.80;98920.81;5028367;28;20328;-39
2022/07/08 06:54:59;;;;;;;5.22;1.92;;;15.20;58.90;;;15.28;51.51;98910.47;5027420;28;20060;-39
2022/07/08 06:57:27;;;;;;;4.10;1.88;;;15.30;58.80;;;15.39;51.79;98912.00;5028288;28;20057;-39
2022/07/08 06:59:55;;;;;;;4.60;1.63;;;15.40;58.70;;;15.50;51.76;98914.41;5028612;28;20050;-39
2022/07/08 07:02:43;;;;;;;5.35;2.20;;;15.60;58.70;;;15.39;50.24;98913.84;5028533;28;20067;-40
2022/07/08 07:05:13;;;;;;;3.63;1.63;;;15.50;56.30;;;15.50;49.79;98919.75;5028055;28;20059;-39
2022/07/08 07:07:40;;;;;;;2.72;1.48;;;15.60;55.20;;;15.61;49.85;98921.31;5027507;28;20363;-39
2022/07/08 07:10:09;;;;;;;5.28;2.15;;;15.70;56.10;;;15.61;49.42;98920.50;5029023;28;20060;-39
2022/07/08 07:12:37;;;;;;;3.22;2.30;;;15.80;54.70;;;15.70;49.01;98920.38;5027738;28;20056;-39
2022/07/08 07:15:06;;;;;;;4.18;1.77;;;15.80;54.60;;;15.74;48.55;98926.25;5028924;28;20348;-39
2022/07/08 07:17:33;;;;;;;6.20;1.98;;;15.90;54.30;;;15.76;48.64;98924.28;5028672;28;20071;-40
2022/07/08 07:20:01;;;;;;;3.83;1.75;;;15.90;54.50;;;15.87;48.93;98923.94;5027642;28;20083;-40
2022/07/08 07:22:29;;;;;;;4.45;1.50;;;16.00;54.90;;;15.98;49.25;98932.72;5029186;28;20361;-40
2022/07/08 07:24:57;;;;;;;5.03;1.88;;;16.20;55.00;;;16.12;49.44;98927.53;5029356;28;20471;-40
2022/07/08 07:27:25;;;;;;;4.22;1.80;;;16.40;55.30;;;16.26;48.26;98928.72;5027070;28;20352;-40
2022/07/08 07:29:53;;;;;;;3.50;1.52;;;16.50;53.00;;;16.32;47.55;98936.13;5026312;28;20055;-40
2022/07/08 07:32:20;;;;;;;3.22;2.13;;;16.60;52.40;;;16.44;46.42;98933.09;5028352;28;20052;-40
2022/07/08 07:34:48;;;;;;;9.02;2.10;;;16.70;51.10;;;16.40;45.86;98934.44;5028245;28;20064;-40
2022/07/08 07:37:16;;;;;;;4.93;1.52;;;16.70;50.00;;;16.50;46.44;98935.97;5028421;28;20243;-40
2022/07/08 07:39:44;;;;;;;3.25;1.77;;;16.70;51.60;;;16.59;45.87;98938.66;5027512;28;20049;-39
2022/07/08 07:42:12;;;;;;;3.30;1.80;;;16.80;49.30;;;16.63;45.23;98934.63;5028459;28;20067;-39
2022/07/08 07:44:40;;;;;;;3.05;1.20;;;16.70;49.80;;;16.67;45.62;98935.94;5027808;28;20332;-39
2022/07/08 07:47:07;;;;;;;5.97;1.48;;;16.80;49.80;;;16.70;45.21;98928.38;5027694;28;20067;-40
2022/07/08 07:49:35;;;;;;;2.35;1.85;;;16.80;50.10;;;16.80;45.26;98932.75;5027273;28;20046;-39
2022/07/08 07:52:04;;;;;;;2.83;1.40;;;16.90;48.20;;;16.75;45.10;98933.28;5027239;28;20263;-39
2022/07/08 07:54:32;;;;;;;3.85;1.60;;;16.80;49.20;;;16.79;45.27;98931.94;5027890;28;20041;-39
2022/07/08 07:57:00;;;;;;;2.33;1.42;;;16.80;50.50;;;16.79;45.25;98928.38;5028370;28;20251;-39
2022/07/08 07:59:28;;;;;;;3.42;1.73;;;16.90;50.30;;;16.69;44.91;98929.41;5027908;28;20057;-39
2022/07/08 08:01:55;;;;;;;2.88;1.70;;;16.80;48.70;;;16.72;44.83;98933.59;5034172;28;20055;-39
2022/07/08 08:04:23;;;;;;;4.00;1.90;;;16.60;48.80;;;16.70;45.14;98939.16;5037255;28;20235;-39
2022/07/08 08:06:51;;;;;;;4.07;1.73;;;16.60;50.60;;;16.79;44.51;98928.38;5035292;28;20358;-39
2022/07/08 08:09:22;;;;;;;2.63;1.90;;;16.70;48.40;;;16.87;44.82;98929.25;5034821;28;20057;-40
2022/07/08 08:11:50;;;;;;;4.30;1.55;;;16.90;48.30;;;16.96;45.07;98932.75;5035145;28;20389;-39
2022/07/08 08:14:19;;;;;;;4.68;1.85;;;17.00;50.20;;;17.02;44.76;98934.78;5036842;28;20064;-39
2022/07/08 08:16:47;;;;;;;5.10;2.42;;;17.00;50.00;;;17.07;44.73;98931.56;5036465;28;20363;-39
2022/07/08 08:19:15;;;;;;;4.25;1.80;;;17.20;49.70;;;17.05;44.91;98933.59;5045718;28;20256;-39
2022/07/08 08:21:43;;;;;;;6.70;2.30;;;17.10;49.90;;;17.09;45.20;98940.31;5028335;28;20217;-39
2022/07/08 08:24:10;;;;;;;3.65;1.50;;;17.20;49.30;;;17.14;44.78;98937.97;5027167;28;20221;-39
2022/07/08 08:26:38;;;;;;;5.03;1.70;;;17.20;50.10;;;17.02;44.95;98932.09;5027049;28;20049;-39
2022/07/08 08:29:06;;;;;;;4.10;1.85;;;17.00;50.40;;;16.99;44.99;98934.28;5027245;28;20053;-39
2022/07/08 08:31:34;;;;;;;2.58;1.50;;;16.90;50.40;;;17.02;45.20;98942.00;5027226;28;20336;-39
2022/07/08 08:34:02;;;;;;;5.22;1.67;;;16.90;49.90;;;17.03;45.02;98933.75;5026465;28;20231;-39
2022/07/08 08:36:30;;;;;;;7.07;1.77;;;16.90;50.50;;;17.05;44.96;98931.75;5026923;28;20049;-39
2022/07/08 08:38:57;;;;;;;5.93;1.80;;;17.00;50.40;;;17.03;44.92;98930.25;5026877;28;20255;-39
2022/07/08 08:41:27;;;;;;;3.35;1.60;;;17.00;50.40;;;17.05;45.06;98931.75;5026714;28;20061;-39
2022/07/08 08:43:55;;;;;;;4.25;1.92;;;17.10;50.30;;;17.04;44.68;98929.22;5026232;28;20359;-39
2022/07/08 08:46:24;;;;;;;4.95;1.88;;;17.10;50.10;;;17.03;44.79;98931.06;5026469;28;20047;-40
2022/07/08 08:48:56;;;;;;;4.72;2.03;;;17.00;49.90;;;17.06;44.20;98925.38;5027266;28;20342;-39
2022/07/08 08:51:24;;;;;;;9.93;2.15;;;17.10;49.10;;;17.18;44.88;98933.06;5026938;28;20239;-39
2022/07/08 08:53:54;;;;;;;3.38;1.70;;;17.30;50.10;;;17.32;45.04;98922.41;5025138;28;20045;-39
2022/07/08 08:56:22;;;;;;;5.15;2.00;;;17.50;50.10;;;17.47;45.20;98924.41;5023387;28;20050;-39
2022/07/08 08:58:51;;;;;;;4.03;2.28;;;17.80;49.60;;;17.59;44.61;98924.84;5007614;28;20062;-39
2022/07/08 09:01:20;;;;;;;3.35;1.88;;;18.00;48.80;;;17.61;43.92;98922.81;5005828;28;20046;-39
2022/07/08 09:03:48;;;;;;;3.85;1.77;;;17.80;48.10;;;17.60;43.92;98927.38;5018618;28;20053;-40
2022/07/08 09:06:17;;;;;;;4.53;2.13;;;17.80;48.50;;;17.54;43.21;98930.75;5034000;28;20079;-39
2022/07/08 09:08:45;;;;;;;2.88;1.65;;;17.60;46.80;;;17.47;43.88;98924.41;5041253;28;20248;-39
2022/07/08 09:11:12;;;;;;;4.30;2.58;;;17.40;49.10;;;17.36;44.11;98925.59;5044828;28;20369;-39
2022/07/08 09:13:40;;;;;;;5.60;1.70;;;17.40;48.90;;;17.26;44.20;98927.66;5027677;28;20079;-39
2022/07/08 09:16:10;;;;;;;2.53;1.60;;;17.10;49.20;;;17.13;44.09;98929.03;5041042;28;20049;-39
2022/07/08 09:18:38;;;;;;;4.95;1.73;;;17.00;49.30;;;17.13;44.36;98929.03;5025701;28;20351;-39
2022/07/08 09:21:07;;;;;;;6.18;2.00;;;17.00;49.60;;;17.13;44.32;98923.66;5024737;28;20048;-40
2022/07/08 09:23:37;;;;;;;5.60;2.40;;;17.10;49.40;;;17.22;44.80;98919.09;5026338;28;20067;-39
2022/07/08 09:26:10;;;;;;;7.07;1.90;;;17.20;50.20;;;17.27;43.99;98915.88;5027122;28;20053;-39
2022/07/08 09:28:44;;;;;;;2.70;1.70;;;17.40;49.00;;;17.27;43.49;98915.88;5021518;28;20068;-39
2022/07/08 09:31:15;;;;;;;2.45;1.73;;;17.50;47.70;;;17.45;43.68;98924.56;5016391;28;20068;-39
2022/07/08 09:33:44;;;;;;;5.78;1.60;;;17.70;47.90;;;17.62;44.07;98927.19;5021485;28;20061;-39
2022/07/08 09:36:11;;;;;;;3.47;1.63;;;17.90;48.40;;;17.79;43.55;98927.94;5023345;28;20066;-39
2022/07/08 09:38:41;;;;;;;2.53;1.65;;;18.10;47.50;;;17.83;43.50;98929.28;5025219;28;20042;-40
2022/07/08 09:41:16;;;;;;;4.35;1.67;;;18.10;47.20;;;17.80;43.41;98918.88;5005808;28;20360;-39
2022/07/08 09:43:48;;;;;;;4.80;1.90;;;18.00;47.50;;;17.84;43.47;98931.81;5006301;28;20252;-39
2022/07/08 09:46:17;;;;;;;4.13;2.15;;;18.10;47.90;;;17.75;42.70;98926.63;5006750;28;20054;-39
2022/07/08 09:48:45;;;;;;;4.78;1.95;;;17.80;47.10;;;17.75;43.00;98926.63;5005808;28;20054;-39
2022/07/08 09:51:16;;;;;;;2.17;1.40;;;17.80;47.50;;;17.68;43.08;98924.66;5005142;28;20057;-39
2022/07/08 09:53:45;;;;;;;4.00;1.88;;;17.90;47.50;;;17.75;43.39;98923.94;5008128;28;20266;-39
2022/07/08 09:56:12;;;;;;;3.63;1.60;;;17.90;47.90;;;17.70;43.54;98922.59;5009446;28;20050;-39
2022/07/08 09:58:40;;;;;;;6.05;2.20;;;18.00;47.80;;;17.89;43.35;98937.53;5008846;28;20054;-39
2022/07/08 10:01:08;;;;;;;3.58;1.98;;;18.20;47.60;;;18.02;43.46;98938.81;5010036;28;20072;-40
2022/07/08 10:03:36;;;;;;;4.65;1.88;;;18.40;47.70;;;18.18;42.95;98913.59;5010291;28;20064;-40
2022/07/08 10:06:05;;;;;;;3.50;1.65;;;18.50;46.90;;;18.32;42.67;98920.06;5010829;28;20398;-40
2022/07/08 10:08:35;;;;;;;2.40;1.58;;;18.70;46.60;;;18.40;42.11;98922.72;5008805;28;20060;-40
2022/07/08 10:11:07;;;;;;;6.47;2.20;;;18.80;45.40;;;18.48;42.04;98914.56;5010398;28;20367;-40
2022/07/08 10:13:37;;;;;;;2.65;1.60;;;18.90;44.60;;;18.52;41.61;98926.66;5009646;28;20233;-40
2022/07/08 10:16:10;;;;;;;4.80;1.73;;;18.80;45.40;;;18.47;41.70;98918.25;5010094;28;20054;-40
2022/07/08 10:18:44;;;;;;;1.98;1.45;;;18.70;45.80;;;18.34;41.52;98920.72;5010233;28;20056;-41
2022/07/08 10:21:20;;;;;;;4.43;1.58;;;18.50;45.30;;;18.26;42.13;98925.19;5009146;28;20053;-40
2022/07/08 10:23:54;;;;;;;2.67;1.73;;;18.50;46.20;;;18.31;42.03;98916.53;5009843;28;20067;-38
2022/07/08 10:26:34;;;;;;;5.93;2.65;;;18.50;46.10;;;18.40;41.31;98918.16;5007247;28;20062;-39